createdAt,value
2019-04-28T00:02:20.550Z,100685.83
2019-04-28T00:04:51.532Z,100685.52
2019-04-28T00:07:22.690Z,100685.17
2019-04-28T00:09:53.634Z,100686.14
2019-04-28T00:12:24.589Z,100679.67
2019-04-28T00:14:55.567Z,100678.45
2019-04-28T00:17:26.421Z,100684.54
2019-04-28T00:19:59.015Z,100675.50
2019-04-28T00:22:31.512Z,100670.87
2019-04-28T00:25:13.208Z,100668.63
2019-04-28T00:27:44.043Z,100670.65
2019-04-28T00:30:15.122Z,100667.11
2019-04-28T00:32:45.960Z,100659.66
2019-04-28T00:35:16.920Z,100653.20
2019-04-28T00:37:47.485Z,100654.08
2019-04-28T00:40:18.634Z,100662.19
2019-04-28T00:42:51.075Z,100659.05
2019-04-28T00:45:21.595Z,100659.45
2019-04-28T00:47:52.650Z,100650.51
2019-04-28T00:50:23.484Z,100657.13
2019-04-28T00:52:55.104Z,100648.84
2019-04-28T00:55:25.728Z,100641.31
2019-04-28T00:57:56.891Z,100647.56
2019-04-28T01:00:31.034Z,100640.51
2019-04-28T01:03:02.283Z,100647.48
2019-04-28T01:05:33.447Z,100639.41
2019-04-28T01:08:04.491Z,100653.49
2019-04-28T01:10:35.161Z,100648.03
2019-04-28T01:13:06.322Z,100653.38
2019-04-28T01:15:41.867Z,100650.44
2019-04-28T01:18:26.531Z,100642.61
2019-04-28T01:20:57.388Z,100641.77
2019-04-28T01:23:30.235Z,100633.36
2019-04-28T01:26:01.041Z,100629.39
2019-04-28T01:28:32.121Z,100630.94
2019-04-28T01:31:13.512Z,100634.92
2019-04-28T01:34:04.599Z,100641.31
2019-04-28T01:36:37.194Z,100635.30
2019-04-28T01:39:10.042Z,100640.59
2019-04-28T01:41:41.669Z,100634.66
2019-04-28T01:44:12.743Z,100629.55
2019-04-28T01:46:43.805Z,100611.91
2019-04-28T01:49:14.967Z,100593.22
2019-04-28T01:51:50.257Z,100578.42
2019-04-28T01:54:21.060Z,100572.34
2019-04-28T01:56:52.122Z,100566.53
2019-04-28T01:59:23.187Z,100553.98
2019-04-28T02:01:54.259Z,100559.09
2019-04-28T02:04:25.218Z,100557.27
2019-04-28T02:06:56.074Z,100561.84
2019-04-28T02:09:27.135Z,100559.03
2019-04-28T02:11:58.213Z,100564.06
2019-04-28T02:14:30.816Z,100563.19
2019-04-28T02:17:01.645Z,100560.58
2019-04-28T02:19:33.003Z,100556.39
2019-04-28T02:22:05.591Z,100565.16
2019-04-28T02:24:37.588Z,100559.00
2019-04-28T02:27:10.412Z,100559.09
2019-04-28T02:29:41.727Z,100558.83
2019-04-28T02:32:13.311Z,100552.59
2019-04-28T02:34:44.696Z,100550.95
2019-04-28T02:37:15.344Z,100549.56
2019-04-28T02:39:46.308Z,100548.41
2019-04-28T02:42:20.632Z,100550.03
2019-04-28T02:44:51.497Z,100549.19
2019-04-28T02:47:22.569Z,100542.56
2019-04-28T02:49:55.236Z,100539.13
2019-04-28T02:52:30.983Z,100542.77
2019-04-28T02:55:03.239Z,100544.39
2019-04-28T02:57:34.367Z,100543.31
2019-04-28T03:00:10.093Z,100552.94
2019-04-28T03:02:41.456Z,100557.81
2019-04-28T03:05:12.871Z,100555.00
2019-04-28T03:07:43.521Z,100549.73
2019-04-28T03:10:14.580Z,100555.31
2019-04-28T03:12:45.640Z,100555.44
2019-04-28T03:15:16.789Z,100556.28
2019-04-28T03:17:52.442Z,100553.60
2019-04-28T03:20:20.970Z,100557.76
2019-04-28T03:22:52.731Z,100556.16
2019-04-28T03:25:30.218Z,100558.52
2019-04-28T03:28:02.135Z,100557.38
2019-04-28T03:30:34.622Z,100562.44
2019-04-28T03:33:16.995Z,100563.23
2019-04-28T03:35:43.989Z,100568.84
2019-04-28T03:38:12.201Z,100571.97
2019-04-28T03:40:43.253Z,100562.64
2019-04-28T03:43:15.153Z,100560.41
2019-04-28T03:45:50.436Z,100563.54
2019-04-28T03:48:21.350Z,100563.45
2019-04-28T03:50:52.515Z,100562.70
2019-04-28T03:53:23.461Z,100567.54
2019-04-28T03:55:54.639Z,100576.69
2019-04-28T03:58:25.183Z,100578.75
2019-04-28T04:00:56.129Z,100579.05
2019-04-28T04:03:27.085Z,100591.09
2019-04-28T04:06:00.499Z,100591.41
2019-04-28T04:08:31.144Z,100582.31
2019-04-28T04:11:03.641Z,100591.09
2019-04-28T04:13:52.835Z,100584.25
2019-04-28T04:16:25.396Z,100584.70
2019-04-28T04:19:00.505Z,100580.94
2019-04-28T04:21:31.063Z,100589.00
2019-04-28T04:24:02.060Z,100585.68
2019-04-28T04:26:33.773Z,100583.28
2019-04-28T04:29:04.693Z,100589.02
2019-04-28T04:31:35.670Z,100584.80
2019-04-28T04:34:06.627Z,100596.60
2019-04-28T04:36:37.583Z,100592.91
2019-04-28T04:39:10.810Z,100599.19
2019-04-28T04:41:43.465Z,100602.56
2019-04-28T04:44:13.200Z,100593.41
2019-04-28T04:46:44.178Z,100600.66
2019-04-28T04:49:15.020Z,100597.21
2019-04-28T04:51:46.076Z,100588.52
2019-04-28T04:54:17.054Z,100593.78
2019-04-28T04:56:49.975Z,100598.29
2019-04-28T04:59:20.377Z,100598.01
2019-04-28T05:01:55.963Z,100602.16
2019-04-28T05:04:31.522Z,100597.61
2019-04-28T05:07:02.480Z,100604.97
2019-04-28T05:09:33.336Z,100611.06
2019-04-28T05:12:04.388Z,100611.81
2019-04-28T05:14:35.357Z,100614.66
2019-04-28T05:17:06.313Z,100607.02
2019-04-28T05:19:37.273Z,100605.92
2019-04-28T05:22:10.165Z,100606.48
2019-04-28T05:24:46.292Z,100598.44
2019-04-28T05:27:17.359Z,100606.95
2019-04-28T05:29:46.917Z,100601.66
2019-04-28T05:32:17.980Z,100600.13
2019-04-28T05:34:50.661Z,100592.68
2019-04-28T05:37:21.348Z,100595.83
2019-04-28T05:39:52.699Z,100596.81
2019-04-28T05:42:23.570Z,100595.68
2019-04-28T05:44:54.816Z,100598.94
2019-04-28T05:47:25.897Z,100607.17
2019-04-28T05:50:04.525Z,100606.44
2019-04-28T05:52:53.177Z,100602.54
2019-04-28T05:55:39.357Z,100608.94
2019-04-28T05:58:14.626Z,100602.67
2019-04-28T06:01:03.487Z,100606.27
2019-04-28T06:03:35.142Z,100600.84
2019-04-28T06:06:06.012Z,100604.81
2019-04-28T06:08:53.543Z,100603.23
2019-04-28T06:11:31.862Z,100601.45
2019-04-28T06:14:02.721Z,100604.28
2019-04-28T06:16:33.881Z,100604.84
2019-04-28T06:19:04.719Z,100601.84
2019-04-28T06:21:35.491Z,100605.48
2019-04-28T06:24:06.431Z,100597.63
2019-04-28T06:26:37.289Z,100601.28
2019-04-28T06:29:08.365Z,100595.25
2019-04-28T06:31:39.324Z,100596.66
2019-04-28T06:34:10.387Z,100597.92
2019-04-28T06:36:41.346Z,100603.42
2019-04-28T06:39:12.199Z,100599.59
2019-04-28T06:41:43.258Z,100600.75
2019-04-28T06:44:14.220Z,100605.36
2019-04-28T06:46:45.484Z,100601.94
2019-04-28T06:49:16.449Z,100605.81
2019-04-28T06:51:47.503Z,100605.68
2019-04-28T06:54:18.651Z,100606.36
2019-04-28T06:56:49.724Z,100610.55
2019-04-28T06:59:20.786Z,100606.52
2019-04-28T07:01:51.847Z,100607.98
2019-04-28T07:04:23.010Z,100611.03
2019-04-28T07:06:53.954Z,100603.84
2019-04-28T07:09:25.029Z,100608.91
2019-04-28T07:11:55.986Z,100594.85
2019-04-28T07:14:27.150Z,100594.97
2019-04-28T07:16:58.093Z,100593.37
2019-04-28T07:19:29.273Z,100585.18
2019-04-28T07:22:11.379Z,100583.89
2019-04-28T07:24:44.766Z,100591.21
2019-04-28T07:27:14.612Z,100584.42
2019-04-28T07:29:45.684Z,100583.90
2019-04-28T07:32:16.556Z,100576.14
2019-04-28T07:34:47.602Z,100577.44
2019-04-28T07:37:18.867Z,100576.48
2019-04-28T07:39:49.929Z,100584.91
2019-04-28T07:42:20.767Z,100581.78
2019-04-28T07:44:51.623Z,100588.34
2019-04-28T07:47:23.723Z,100598.73
2019-04-28T07:49:54.782Z,100592.30
2019-04-28T07:52:27.277Z,100600.73
2019-04-28T07:54:58.421Z,100588.54
2019-04-28T07:57:29.498Z,100592.20
2019-04-28T08:00:00.570Z,100594.91
2019-04-28T08:02:31.505Z,100595.83
2019-04-28T08:05:02.497Z,100582.87
2019-04-28T08:07:33.539Z,100576.77
2019-04-28T08:10:06.239Z,100570.44
2019-04-28T08:12:36.969Z,100568.71
2019-04-28T08:15:07.947Z,100562.05
2019-04-28T08:17:39.007Z,100564.69
2019-04-28T08:20:10.477Z,100563.97
2019-04-28T08:22:41.417Z,100562.56
2019-04-28T08:25:12.471Z,100562.95
2019-04-28T08:27:43.435Z,100562.57
2019-04-28T08:30:14.413Z,100549.53
2019-04-28T08:32:55.786Z,100553.75
2019-04-28T08:35:26.861Z,100551.52
2019-04-28T08:37:57.699Z,100546.03
2019-04-28T08:40:28.674Z,100544.73
2019-04-28T08:42:59.619Z,100554.69
2019-04-28T08:45:30.591Z,100555.91
2019-04-28T08:48:02.061Z,100549.99
2019-04-28T08:50:32.903Z,100558.70
2019-04-28T08:53:03.861Z,100554.61
2019-04-28T08:55:35.225Z,100554.27
2019-04-28T08:58:05.894Z,100552.42
2019-04-28T09:00:36.956Z,100547.23
2019-04-28T09:03:07.915Z,100551.45
2019-04-28T09:05:38.757Z,100544.22
2019-04-28T09:08:09.830Z,100550.78
2019-04-28T09:10:40.789Z,100547.38
2019-04-28T09:13:11.790Z,100541.97
2019-04-28T09:15:42.812Z,100542.50
2019-04-28T09:18:13.543Z,100540.11
2019-04-28T09:20:44.723Z,100544.55
2019-04-28T09:23:15.567Z,100542.13
2019-04-28T09:25:46.439Z,100544.63
2019-04-28T09:28:17.499Z,100535.91
2019-04-28T09:30:48.560Z,100540.59
2019-04-28T09:33:19.622Z,100535.38
2019-04-28T09:35:50.575Z,100538.87
2019-04-28T09:38:21.742Z,100537.23
2019-04-28T09:40:52.699Z,100539.16
2019-04-28T09:43:25.070Z,100541.11
2019-04-28T09:46:00.632Z,100525.16
2019-04-28T09:48:32.528Z,100525.83
2019-04-28T09:51:03.570Z,100539.89
2019-04-28T09:53:34.650Z,100539.56
2019-04-28T09:56:05.693Z,100538.31
2019-04-28T09:58:36.651Z,100541.95
2019-04-28T10:01:07.626Z,100544.39
2019-04-28T10:03:38.686Z,100537.77
2019-04-28T10:06:09.730Z,100549.55
2019-04-28T10:08:40.707Z,100544.53
2019-04-28T10:11:11.752Z,100538.31
2019-04-28T10:13:42.604Z,100540.81
2019-04-28T10:16:13.478Z,100544.12
2019-04-28T10:18:44.132Z,100536.17
2019-04-28T10:21:15.087Z,100536.92
2019-04-28T10:23:45.945Z,100540.27
2019-04-28T10:26:17.007Z,100543.47
2019-04-28T10:28:47.845Z,100547.61
2019-04-28T10:31:18.905Z,100543.81
2019-04-28T10:33:51.396Z,100537.16
2019-04-28T10:36:22.256Z,100542.09
2019-04-28T10:38:54.867Z,100540.18
2019-04-28T10:41:27.461Z,100537.56
2019-04-28T10:43:58.521Z,100531.80
2019-04-28T10:46:29.462Z,100535.84
2019-04-28T10:49:00.221Z,100544.55
2019-04-28T10:51:31.404Z,100537.55
2019-04-28T10:54:01.929Z,100534.19
2019-04-28T10:56:32.801Z,100532.80
2019-04-28T10:59:04.272Z,100530.98
2019-04-28T11:01:35.126Z,100532.96
2019-04-28T11:04:10.381Z,100525.13
2019-04-28T11:06:41.338Z,100521.53
2019-04-28T11:09:32.038Z,100529.11
2019-04-28T11:12:03.303Z,100531.72
2019-04-28T11:14:34.261Z,100531.30
2019-04-28T11:17:05.627Z,100531.77
2019-04-28T11:19:36.178Z,100526.89
2019-04-28T11:22:07.134Z,100530.48
2019-04-28T11:24:38.196Z,100521.25
2019-04-28T11:27:09.751Z,100517.36
2019-04-28T11:29:40.523Z,100513.52
2019-04-28T11:32:11.582Z,100512.28
2019-04-28T11:34:49.700Z,100509.80
2019-04-28T11:37:21.074Z,100507.70
2019-04-28T11:39:51.620Z,100516.25
2019-04-28T11:42:22.561Z,100508.23
2019-04-28T11:44:53.636Z,100506.34
2019-04-28T11:47:24.678Z,100503.27
2019-04-28T11:49:55.658Z,100505.23
2019-04-28T11:52:26.615Z,100494.75
2019-04-28T11:54:57.454Z,100492.94
2019-04-28T11:57:28.739Z,100493.67
2019-04-28T11:59:59.374Z,100494.13
2019-04-28T12:02:30.250Z,100484.36
2019-04-28T12:05:01.389Z,100488.18
2019-04-28T12:07:32.464Z,100486.52
2019-04-28T12:10:07.907Z,100488.86
2019-04-28T12:12:40.418Z,100480.36
2019-04-28T12:15:16.284Z,100472.27
2019-04-28T12:17:54.923Z,100476.61
2019-04-28T12:20:27.001Z,100469.50
2019-04-28T12:22:57.732Z,100467.47
2019-04-28T12:25:28.813Z,100461.35
2019-04-28T12:27:59.772Z,100460.40
2019-04-28T12:30:30.830Z,100454.67
2019-04-28T12:33:01.874Z,100449.55
2019-04-28T12:35:33.053Z,100442.27
2019-04-28T12:38:03.995Z,100448.22
2019-04-28T12:40:34.968Z,100441.13
2019-04-28T12:43:06.031Z,100442.55
2019-04-28T12:45:36.995Z,100445.14
2019-04-28T12:48:08.032Z,100436.69
2019-04-28T12:50:46.577Z,100433.98
2019-04-28T12:53:17.434Z,100433.58
2019-04-28T12:55:48.374Z,100425.54
2019-04-28T12:58:19.351Z,100418.99
2019-04-28T13:01:08.203Z,100417.23
2019-04-28T13:03:40.803Z,100412.16
2019-04-28T13:06:18.899Z,100427.97
2019-04-28T13:08:49.961Z,100414.47
2019-04-28T13:11:20.919Z,100418.03
2019-04-28T13:13:51.895Z,100417.58
2019-04-28T13:16:22.734Z,100426.70
2019-04-28T13:18:53.813Z,100417.55
2019-04-28T13:21:24.755Z,100417.41
2019-04-28T13:23:55.861Z,100414.67
2019-04-28T13:26:26.898Z,100410.19
2019-04-28T13:28:57.950Z,100413.45
2019-04-28T13:31:28.910Z,100407.91
2019-04-28T13:34:01.300Z,100411.02
2019-04-28T13:36:32.070Z,100410.06
2019-04-28T13:39:04.652Z,100408.05
2019-04-28T13:41:37.365Z,100408.75
2019-04-28T13:44:09.416Z,100397.88
2019-04-28T13:46:40.388Z,100393.59
2019-04-28T13:49:12.887Z,100392.02
2019-04-28T13:51:43.823Z,100394.17
2019-04-28T13:54:16.314Z,100390.15
2019-04-28T13:56:47.391Z,100388.05
2019-04-28T13:59:19.885Z,100385.48
2019-04-28T14:01:52.379Z,100391.43
2019-04-28T14:04:31.161Z,100387.78
2019-04-28T14:07:02.072Z,100389.55
2019-04-28T14:09:33.070Z,100392.63
2019-04-28T14:12:04.194Z,100395.00
2019-04-28T14:14:35.233Z,100389.30
2019-04-28T14:17:06.208Z,100395.41
2019-04-28T14:19:37.369Z,100398.32
2019-04-28T14:22:08.381Z,100404.31
2019-04-28T14:24:39.285Z,100401.56
2019-04-28T14:27:10.350Z,100406.58
2019-04-28T14:29:41.186Z,100392.44
2019-04-28T14:32:12.289Z,100394.34
2019-04-28T14:34:43.223Z,100394.55
2019-04-28T14:37:14.293Z,100392.53
2019-04-28T14:39:45.225Z,100392.92
2019-04-28T14:42:16.100Z,100389.61
2019-04-28T14:44:47.039Z,100392.09
2019-04-28T14:47:18.016Z,100388.70
2019-04-28T14:49:49.224Z,100385.14
2019-04-28T14:52:20.252Z,100383.57
2019-04-28T14:54:51.303Z,100384.47
2019-04-28T14:57:22.137Z,100385.08
2019-04-28T14:59:53.114Z,100379.60
2019-04-28T15:02:42.315Z,100377.92
2019-04-28T15:05:21.401Z,100375.27
2019-04-28T15:08:12.423Z,100374.12
2019-04-28T15:11:03.092Z,100372.70
2019-04-28T15:13:34.180Z,100376.68
2019-04-28T15:16:05.183Z,100362.69
2019-04-28T15:18:36.136Z,100368.50
2019-04-28T15:21:07.172Z,100365.58
2019-04-28T15:23:38.116Z,100367.24
2019-04-28T15:26:09.183Z,100367.30
2019-04-28T15:28:40.136Z,100367.20
2019-04-28T15:31:10.973Z,100366.00
2019-04-28T15:33:42.051Z,100361.41
2019-04-28T15:36:13.014Z,100356.88
2019-04-28T15:38:44.071Z,100359.70
2019-04-28T15:41:21.961Z,100351.06
2019-04-28T15:43:47.305Z,100353.21
2019-04-28T15:46:18.257Z,100353.69
2019-04-28T15:48:49.115Z,100351.73
2019-04-28T15:51:21.112Z,100353.97
2019-04-28T15:53:51.765Z,100360.16
2019-04-28T15:56:27.104Z,100353.49
2019-04-28T15:58:58.067Z,100348.67
2019-04-28T16:01:28.943Z,100351.33
2019-04-28T16:03:59.998Z,100347.91
2019-04-28T16:06:31.039Z,100351.79
2019-04-28T16:09:02.116Z,100345.67
2019-04-28T16:11:41.148Z,100348.94
2019-04-28T16:14:11.810Z,100341.21
2019-04-28T16:16:43.787Z,100347.66
2019-04-28T16:19:14.744Z,100346.39
2019-04-28T16:21:45.706Z,100348.22
2019-04-28T16:24:17.278Z,100350.45
2019-04-28T16:26:48.349Z,100350.72
2019-04-28T16:29:19.398Z,100356.45
2019-04-28T16:31:49.928Z,100361.24
2019-04-28T16:34:20.782Z,100361.63
2019-04-28T16:36:51.741Z,100361.08
2019-04-28T16:39:22.598Z,100368.35
2019-04-28T16:41:54.332Z,100368.11
2019-04-28T16:44:25.351Z,100373.26
2019-04-28T16:46:56.293Z,100369.66
2019-04-28T16:49:27.270Z,100374.14
2019-04-28T16:51:58.210Z,100381.44
2019-04-28T16:54:29.185Z,100384.12
2019-04-28T16:57:07.609Z,100382.94
2019-04-28T16:59:52.158Z,100389.34
2019-04-28T17:02:33.635Z,100387.02
2019-04-28T17:05:05.748Z,100394.08
2019-04-28T17:07:36.813Z,100396.30
2019-04-28T17:10:07.953Z,100396.33
2019-04-28T17:12:38.658Z,100402.89
2019-04-28T17:15:09.984Z,100409.68
2019-04-28T17:17:40.537Z,100402.26
2019-04-28T17:20:11.746Z,100404.59
2019-04-28T17:22:42.340Z,100419.33
2019-04-28T17:25:13.601Z,100416.95
2019-04-28T17:27:44.781Z,100418.78
2019-04-28T17:30:17.154Z,100423.84
2019-04-28T17:32:48.027Z,100428.36
2019-04-28T17:35:18.968Z,100429.82
2019-04-28T17:37:50.051Z,100432.83
2019-04-28T17:40:22.521Z,100435.62
2019-04-28T17:42:53.600Z,100440.72
2019-04-28T17:45:24.561Z,100432.39
2019-04-28T17:47:57.153Z,100444.66
2019-04-28T17:50:28.521Z,100444.04
2019-04-28T17:52:59.253Z,100450.09
2019-04-28T17:55:30.113Z,100454.27
2019-04-28T17:58:00.978Z,100455.31
2019-04-28T18:00:40.028Z,100456.09
2019-04-28T18:03:28.863Z,100458.06
2019-04-28T18:06:01.270Z,100460.72
2019-04-28T18:08:33.353Z,100469.44
2019-04-28T18:11:04.006Z,100476.22
2019-04-28T18:13:34.964Z,100468.79
2019-04-28T18:16:23.598Z,100478.13
2019-04-28T18:19:14.315Z,100479.42
2019-04-28T18:21:45.448Z,100483.41
2019-04-28T18:24:16.539Z,100485.48
2019-04-28T18:26:47.598Z,100484.73
2019-04-28T18:29:18.440Z,100483.55
2019-04-28T18:32:00.151Z,100487.32
2019-04-28T18:34:32.746Z,100481.33
2019-04-28T18:37:17.411Z,100485.42
2019-04-28T18:40:04.731Z,100483.16
2019-04-28T18:42:55.739Z,100486.71
2019-04-28T18:45:26.692Z,100479.88
2019-04-28T18:47:57.961Z,100482.08
2019-04-28T18:50:28.800Z,100478.56
2019-04-28T18:52:59.655Z,100480.61
2019-04-28T18:55:30.610Z,100484.02
2019-04-28T18:58:01.588Z,100485.25
2019-04-28T19:00:34.181Z,100481.37
2019-04-28T19:03:05.226Z,100484.98
2019-04-28T19:05:37.666Z,100481.05
2019-04-28T19:08:12.889Z,100479.15
2019-04-28T19:10:45.471Z,100475.40
2019-04-28T19:13:20.841Z,100474.23
2019-04-28T19:15:53.432Z,100482.96
2019-04-28T19:18:27.156Z,100475.38
2019-04-28T19:20:57.989Z,100475.75
2019-04-28T19:23:29.068Z,100477.37
2019-04-28T19:26:00.489Z,100480.08
2019-04-28T19:28:31.172Z,100478.91
2019-04-28T19:31:02.252Z,100480.70
2019-04-28T19:33:33.212Z,100485.23
2019-04-28T19:36:04.151Z,100486.21
2019-04-28T19:38:35.231Z,100486.73
2019-04-28T19:41:06.188Z,100488.13
2019-04-28T19:43:37.149Z,100482.23
2019-04-28T19:46:09.641Z,100488.12
2019-04-28T19:48:40.699Z,100488.34
2019-04-28T19:51:11.657Z,100492.41
2019-04-28T19:53:42.721Z,100491.77
2019-04-28T19:56:27.365Z,100489.73
2019-04-28T19:59:15.092Z,100494.79
2019-04-28T20:01:46.377Z,100499.50
2019-04-28T20:04:17.186Z,100492.00
2019-04-28T20:06:48.183Z,100495.34
2019-04-28T20:09:19.031Z,100496.64
2019-04-28T20:11:50.005Z,100502.95
2019-04-28T20:14:20.945Z,100504.03
2019-04-28T20:16:51.922Z,100497.80
2019-04-28T20:19:22.777Z,100497.35
2019-04-28T20:21:53.841Z,100510.69
2019-04-28T20:24:24.796Z,100504.45
2019-04-28T20:26:55.740Z,100505.42
2019-04-28T20:29:26.712Z,100513.58
2019-04-28T20:31:57.571Z,100512.84
2019-04-28T20:34:28.512Z,100516.56
2019-04-28T20:37:13.174Z,100517.42
2019-04-28T20:39:45.584Z,100523.30
2019-04-28T20:42:34.749Z,100517.72
2019-04-28T20:45:08.637Z,100522.70
2019-04-28T20:47:39.733Z,100518.72
2019-04-28T20:50:10.977Z,100530.97
2019-04-28T20:52:41.631Z,100522.67
2019-04-28T20:55:12.708Z,100520.25
2019-04-28T20:57:43.649Z,100518.75
2019-04-28T21:00:14.813Z,100526.75
2019-04-28T21:02:45.889Z,100519.57
2019-04-28T21:05:16.947Z,100528.50
2019-04-28T21:07:47.807Z,100532.59
2019-04-28T21:10:18.869Z,100533.45
2019-04-28T21:12:49.399Z,100535.63
2019-04-28T21:15:20.256Z,100534.44
2019-04-28T21:17:51.331Z,100539.38
2019-04-28T21:20:22.292Z,100544.32
2019-04-28T21:22:53.351Z,100541.53
2019-04-28T21:25:24.308Z,100540.45
2019-04-28T21:27:55.168Z,100543.70
2019-04-28T21:30:26.110Z,100541.42
2019-04-28T21:32:57.063Z,100545.37
2019-04-28T21:35:28.025Z,100541.95
2019-04-28T21:37:59.003Z,100546.48
2019-04-28T21:40:30.145Z,100553.03
2019-04-28T21:43:05.212Z,100556.91
2019-04-28T21:45:54.067Z,100552.86
2019-04-28T21:48:38.834Z,100550.80
2019-04-28T21:51:11.904Z,100548.12
2019-04-28T21:53:43.103Z,100548.08
2019-04-28T21:56:14.161Z,100546.56
2019-04-28T21:58:45.002Z,100544.78
2019-04-28T22:01:19.433Z,100551.88
2019-04-28T22:03:50.515Z,100546.05
2019-04-28T22:06:21.779Z,100547.97
2019-04-28T22:08:52.741Z,100543.23
2019-04-28T22:11:23.798Z,100542.23
2019-04-28T22:13:54.637Z,100540.62
2019-04-28T22:16:25.610Z,100541.91
2019-04-28T22:18:56.775Z,100536.23
2019-04-28T22:21:27.734Z,100537.24
2019-04-28T22:24:00.316Z,100538.58
2019-04-28T22:26:47.942Z,100537.32
2019-04-28T22:29:18.985Z,100527.34
2019-04-28T22:31:49.976Z,100523.88
2019-04-28T22:34:20.817Z,100520.34
2019-04-28T22:36:51.893Z,100521.59
2019-04-28T22:39:22.850Z,100519.94
2019-04-28T22:41:53.695Z,100518.45
2019-04-28T22:44:24.651Z,100524.39
2019-04-28T22:46:55.623Z,100512.34
2019-04-28T22:49:27.076Z,100517.88
2019-04-28T22:51:57.832Z,100517.03
2019-04-28T22:54:30.527Z,100518.72
2019-04-28T22:57:03.037Z,100516.56
2019-04-28T22:59:35.529Z,100516.91
2019-04-28T23:02:10.767Z,100524.45
2019-04-28T23:04:43.260Z,100521.65
2019-04-28T23:07:14.644Z,100521.36
2019-04-28T23:09:45.604Z,100520.91
2019-04-28T23:12:16.663Z,100515.12
2019-04-28T23:14:47.622Z,100516.19
2019-04-28T23:17:20.217Z,100513.27
2019-04-28T23:19:50.969Z,100507.27
2019-04-28T23:22:23.443Z,100504.99
2019-04-28T23:24:54.523Z,100508.01
2019-04-28T23:27:25.362Z,100504.58
2019-04-28T23:29:56.234Z,100509.95
2019-04-28T23:32:27.372Z,100518.42
2019-04-28T23:34:58.441Z,100512.30
2019-04-28T23:37:29.400Z,100519.83
2019-04-28T23:40:00.475Z,100517.94
2019-04-28T23:42:41.972Z,100525.17
2019-04-28T23:45:13.114Z,100520.50
2019-04-28T23:47:43.768Z,100512.60
2019-04-28T23:50:16.370Z,100517.16
2019-04-28T23:52:51.941Z,100524.06
2019-04-28T23:55:23.002Z,100519.88
2019-04-28T23:57:53.859Z,100522.66
